Aérodrome :
LOGIN :

S'inscrire | Disclaimer

   EN    FR    IT 

 










Légende :    VFR   VFR Marginal   IFR   IFR Intensif   IFR Très Intensif
Visi : 
Plafond : 
>= 8 km
>= 3000ft
5 à 8 km
1000 à 3000 ft
1500m à 5 km
500 à 1000 ft
800 à 1500m
200 à 500 ft
< 800m
< 200 ft
Symboles :   Orages  Brouillard  Fortes neiges  Fortes précipitations  Vent > 20 kt
SIGMETs :   Divers  Orages  Givrage  Turbulence  Onde Orograph.  Cendres Volcan.







- Altitude de l'aérodrome : 1300 ft
- Code IATA : LIG
- Voir les cartes d'approche


LFBL - Limoges

METARs EXPIRÉS :
  • 241430Z AUTO 28005KT 220V010 CAVOK 23/12 Q1020 NOSIG
  • 241400Z AUTO 25005KT 190V300 CAVOK 23/11 Q1020 NOSIG
  • 241330Z AUTO VRB03KT 9999 FEW043 23/11 Q1021 NOSIG
  • 241300Z AUTO 35004KT 300V040 9999 FEW042 22/11 Q1021 NOSIG
  • 241230Z AUTO VRB05KT 9999 SCT040 22/12 Q1021 NOSIG
  • 241200Z AUTO VRB06KT 9999 SCT040 22/12 Q1021 NOSIG

TAF TAF LFBL
Valide du 23 à 18h jusqu'au 24 à 18h UTC


231700Z 2318/2418 27007KT 9999 BKN025
ATIS : +33 5 55 48 40 37
Pas de NOTAMs connus pour ce terrain.



MET'MAP, la Météo Aéronautique d'un coup d'oeil ! - Copyright ORBIFLY Décembre 2007 - Disclaimer

ORBIFLY MET'MAP TEAM :

Programmation & Développement : Alexandra Zaïnal
Conception & Développement : Baudouin d'Aumeries
Co-Programmation & Développement : Marc-Olivier Méhu
Soutien technique & logistique : Manuel Goepfert

Contact : metmap@orbifly.com




SOURCES & CREDITS :

   NOAA